createdAt,value
2018-03-02T00:01:37.000Z,99029
2018-03-02T00:02:53.000Z,99026
2018-03-02T00:03:53.000Z,99034
2018-03-02T00:05:53.000Z,99032
2018-03-02T00:07:37.000Z,99026
2018-03-02T00:08:53.000Z,99029
2018-03-02T00:10:53.000Z,99019
2018-03-02T00:12:37.000Z,99026
2018-03-02T00:13:53.000Z,99018
2018-03-02T00:14:53.000Z,99018
2018-03-02T00:16:52.000Z,99018
2018-03-02T00:18:37.000Z,99012
2018-03-02T00:19:52.000Z,99016
2018-03-02T00:21:37.000Z,99016
2018-03-02T00:22:52.000Z,99014
2018-03-02T00:24:52.000Z,99015
2018-03-02T00:26:52.000Z,99008
2018-03-02T00:28:52.000Z,98996
2018-03-02T00:30:52.000Z,98997
2018-03-02T00:31:52.000Z,98994
2018-03-02T00:32:52.000Z,98979
2018-03-02T00:34:52.000Z,98979
2018-03-02T00:36:52.000Z,98983
2018-03-02T00:38:52.000Z,98984
2018-03-02T00:40:52.000Z,98974
2018-03-02T00:42:52.000Z,98974
2018-03-02T00:43:52.000Z,98974
2018-03-02T00:45:52.000Z,98983
2018-03-02T00:46:52.000Z,98976
2018-03-02T00:48:52.000Z,98964
2018-03-02T00:50:52.000Z,98959
2018-03-02T00:51:52.000Z,98975
2018-03-02T00:53:52.000Z,98968
2018-03-02T00:54:52.000Z,98958
2018-03-02T00:56:52.000Z,98965
2018-03-02T00:58:52.000Z,98974
2018-03-02T01:00:52.000Z,98975
2018-03-02T01:02:52.000Z,98973
2018-03-02T01:03:52.000Z,98965
2018-03-02T01:05:52.000Z,98972
2018-03-02T01:06:52.000Z,98967
2018-03-02T01:07:52.000Z,98967
2018-03-02T01:08:52.000Z,98967
2018-03-02T01:10:52.000Z,98965
2018-03-02T01:12:52.000Z,98962
2018-03-02T01:14:52.000Z,98957
2018-03-02T01:16:52.000Z,98952
2018-03-02T01:18:52.000Z,98961
2018-03-02T01:20:22.000Z,98948
2018-03-02T01:21:52.000Z,98954
2018-03-02T01:22:52.000Z,98951
2018-03-02T01:24:52.000Z,98952
2018-03-02T01:25:52.000Z,98954
2018-03-02T01:27:52.000Z,98948
2018-03-02T01:28:52.000Z,98945
2018-03-02T01:29:52.000Z,98944
2018-03-02T01:31:52.000Z,98941
2018-03-02T01:33:52.000Z,98953
2018-03-02T01:35:52.000Z,98954
2018-03-02T01:37:52.000Z,98947
2018-03-02T01:39:52.000Z,98943
2018-03-02T01:40:52.000Z,98948
2018-03-02T01:42:52.000Z,98943
2018-03-02T01:44:37.000Z,98937
2018-03-02T01:46:52.000Z,98933
2018-03-02T01:48:52.000Z,98932
2018-03-02T01:50:52.000Z,98927
2018-03-02T01:52:37.000Z,98927
2018-03-02T01:53:52.000Z,98924
2018-03-02T01:55:52.000Z,98922
2018-03-02T01:57:37.000Z,98928
2018-03-02T01:58:52.000Z,98927
2018-03-02T02:00:52.000Z,98933
2018-03-02T02:02:52.000Z,98928
2018-03-02T02:04:52.000Z,98928
2018-03-02T02:06:52.000Z,98918
2018-03-02T02:08:52.000Z,98914
2018-03-02T02:09:52.000Z,98921
2018-03-02T02:11:52.000Z,98912
2018-03-02T02:13:52.000Z,98908
2018-03-02T02:14:52.000Z,98904
2018-03-02T02:16:52.000Z,98898
2018-03-02T02:17:52.000Z,98908
2018-03-02T02:18:52.000Z,98904
2018-03-02T02:20:52.000Z,98894
2018-03-02T02:21:52.000Z,98888
2018-03-02T02:23:52.000Z,98905
2018-03-02T02:24:53.000Z,98891
2018-03-02T02:26:53.000Z,98895
2018-03-02T02:27:53.000Z,98891
2018-03-02T02:29:53.000Z,98891
2018-03-02T02:31:53.000Z,98882
2018-03-02T02:32:53.000Z,98886
2018-03-02T02:34:38.000Z,98882
2018-03-02T02:35:53.000Z,98884
2018-03-02T02:37:53.000Z,98876
2018-03-02T02:39:53.000Z,98872
2018-03-02T02:40:53.000Z,98871
2018-03-02T02:42:53.000Z,98870
2018-03-02T02:44:53.000Z,98870
2018-03-02T02:46:38.000Z,98875
2018-03-02T02:47:53.000Z,98879
2018-03-02T02:49:53.000Z,98881
2018-03-02T02:50:53.000Z,98878
2018-03-02T02:52:53.000Z,98880
2018-03-02T02:54:53.000Z,98864
2018-03-02T02:56:53.000Z,98872
2018-03-02T02:58:53.000Z,98880
2018-03-02T02:59:53.000Z,98877
2018-03-02T03:01:53.000Z,98884
2018-03-02T03:03:53.000Z,98879
2018-03-02T03:05:53.000Z,98874
2018-03-02T03:07:38.000Z,98869
2018-03-02T03:08:53.000Z,98869
2018-03-02T03:09:53.000Z,98874
2018-03-02T03:10:53.000Z,98868
2018-03-02T03:12:53.000Z,98869
2018-03-02T03:13:53.000Z,98872
2018-03-02T03:15:53.000Z,98871
2018-03-02T03:16:53.000Z,98867
2018-03-02T03:18:53.000Z,98873
2018-03-02T03:19:53.000Z,98880
2018-03-02T03:21:38.000Z,98873
2018-03-02T03:22:53.000Z,98864
2018-03-02T03:23:53.000Z,98860
2018-03-02T03:25:53.000Z,98869
2018-03-02T03:27:53.000Z,98869
2018-03-02T03:28:53.000Z,98875
2018-03-02T03:30:53.000Z,98865
2018-03-02T03:32:53.000Z,98857
2018-03-02T03:34:53.000Z,98862
2018-03-02T03:36:37.000Z,98855
2018-03-02T03:37:53.000Z,98857
2018-03-02T03:38:53.000Z,98846
2018-03-02T03:40:37.000Z,98850
2018-03-02T03:41:53.000Z,98846
2018-03-02T03:43:53.000Z,98846
2018-03-02T03:44:53.000Z,98838
2018-03-02T03:46:53.000Z,98834
2018-03-02T03:48:53.000Z,98836
2018-03-02T03:50:53.000Z,98817
2018-03-02T03:51:53.000Z,98825
2018-03-02T03:52:53.000Z,98830
2018-03-02T03:54:53.000Z,98829
2018-03-02T03:56:53.000Z,98821
2018-03-02T03:58:53.000Z,98829
2018-03-02T04:00:53.000Z,98825
2018-03-02T04:01:53.000Z,98820
2018-03-02T04:03:53.000Z,98828
2018-03-02T04:05:53.000Z,98826
2018-03-02T04:06:53.000Z,98828
2018-03-02T04:08:53.000Z,98818
2018-03-02T04:10:37.000Z,98814
2018-03-02T04:11:53.000Z,98823
2018-03-02T04:12:53.000Z,98825
2018-03-02T04:14:53.000Z,98833
2018-03-02T04:16:53.000Z,98827
2018-03-02T04:17:53.000Z,98831
2018-03-02T04:19:37.000Z,98832
2018-03-02T04:20:53.000Z,98821
2018-03-02T04:22:53.000Z,98820
2018-03-02T04:23:53.000Z,98812
2018-03-02T04:25:37.000Z,98810
2018-03-02T04:26:53.000Z,98812
2018-03-02T04:27:53.000Z,98803
2018-03-02T04:29:53.000Z,98801
2018-03-02T04:30:53.000Z,98800
2018-03-02T04:32:52.000Z,98788
2018-03-02T04:34:52.000Z,98793
2018-03-02T04:35:52.000Z,98785
2018-03-02T04:36:52.000Z,98777
2018-03-02T04:38:37.000Z,98786
2018-03-02T04:39:52.000Z,98786
2018-03-02T04:40:52.000Z,98776
2018-03-02T04:41:52.000Z,98784
2018-03-02T04:43:52.000Z,98774
2018-03-02T04:45:52.000Z,98777
2018-03-02T04:47:52.000Z,98772
2018-03-02T04:49:52.000Z,98765
2018-03-02T04:50:52.000Z,98776
2018-03-02T04:52:52.000Z,98753
2018-03-02T04:54:52.000Z,98775
2018-03-02T04:56:52.000Z,98759
2018-03-02T04:58:52.000Z,98767
2018-03-02T04:59:52.000Z,98755
2018-03-02T05:01:52.000Z,98762
2018-03-02T05:02:52.000Z,98761
2018-03-02T05:04:52.000Z,98754
2018-03-02T05:05:52.000Z,98753
2018-03-02T05:07:52.000Z,98758
2018-03-02T05:08:52.000Z,98743
2018-03-02T05:09:52.000Z,98750
2018-03-02T05:11:52.000Z,98749
2018-03-02T05:12:52.000Z,98742
2018-03-02T05:14:52.000Z,98750
2018-03-02T05:16:52.000Z,98749
2018-03-02T05:17:52.000Z,98745
2018-03-02T05:18:52.000Z,98743
2018-03-02T05:20:37.000Z,98732
2018-03-02T05:21:52.000Z,98747
2018-03-02T05:23:52.000Z,98752
2018-03-02T05:25:52.000Z,98748
2018-03-02T05:26:52.000Z,98747
2018-03-02T05:28:52.000Z,98737
2018-03-02T05:30:52.000Z,98719
2018-03-02T05:32:52.000Z,98725
2018-03-02T05:34:52.000Z,98730
2018-03-02T05:36:52.000Z,98730
2018-03-02T05:40:47.000Z,98723
2018-03-02T05:42:47.000Z,98731
2018-03-02T05:43:47.000Z,98728
2018-03-02T05:45:31.000Z,98723
2018-03-02T05:46:47.000Z,98730
2018-03-02T05:48:47.000Z,98721
2018-03-02T05:49:47.000Z,98721
2018-03-02T05:51:31.000Z,98734
2018-03-02T05:52:47.000Z,98727
2018-03-02T05:54:31.000Z,98724
2018-03-02T05:55:47.000Z,98723
2018-03-02T05:56:47.000Z,98730
2018-03-02T05:57:47.000Z,98723
2018-03-02T05:59:47.000Z,98718
2018-03-02T06:01:47.000Z,98715
2018-03-02T06:02:47.000Z,98720
2018-03-02T06:03:47.000Z,98732
2018-03-02T06:04:47.000Z,98724
2018-03-02T06:06:47.000Z,98751
2018-03-02T06:08:47.000Z,98725
2018-03-02T06:10:31.000Z,98721
2018-03-02T06:11:47.000Z,98733
2018-03-02T06:13:16.000Z,98722
2018-03-02T06:14:47.000Z,98734
2018-03-02T06:15:47.000Z,98720
2018-03-02T06:17:47.000Z,98717
2018-03-02T06:19:47.000Z,98714
2018-03-02T06:21:47.000Z,98702
2018-03-02T06:22:47.000Z,98720
2018-03-02T06:23:47.000Z,98710
2018-03-02T06:25:47.000Z,98715
2018-03-02T06:26:47.000Z,98720
2018-03-02T06:27:47.000Z,98707
2018-03-02T06:28:47.000Z,98709
2018-03-02T06:30:47.000Z,98710
2018-03-02T06:32:47.000Z,98706
2018-03-02T06:33:47.000Z,98694
2018-03-02T06:34:47.000Z,98701
2018-03-02T06:36:47.000Z,98696
2018-03-02T06:37:47.000Z,98693
2018-03-02T06:39:47.000Z,98696
2018-03-02T06:41:47.000Z,98698
2018-03-02T06:43:47.000Z,98686
2018-03-02T06:44:47.000Z,98687
2018-03-02T06:46:47.000Z,98689
2018-03-02T06:48:47.000Z,98700
2018-03-02T06:49:47.000Z,98690
2018-03-02T06:51:47.000Z,98697
2018-03-02T06:53:47.000Z,98700
2018-03-02T06:55:47.000Z,98698
2018-03-02T06:56:47.000Z,98717
2018-03-02T06:57:47.000Z,98708
2018-03-02T06:59:47.000Z,98686
2018-03-02T07:01:47.000Z,98689
2018-03-02T07:03:47.000Z,98690
2018-03-02T07:05:47.000Z,98690
2018-03-02T07:06:47.000Z,98705
2018-03-02T07:08:47.000Z,98693
2018-03-02T07:10:47.000Z,98692
2018-03-02T07:11:47.000Z,98687
2018-03-02T07:13:47.000Z,98686
2018-03-02T07:15:32.000Z,98684
2018-03-02T07:16:47.000Z,98687
2018-03-02T07:17:47.000Z,98685
2018-03-02T07:19:32.000Z,98686
2018-03-02T07:20:47.000Z,98682
2018-03-02T07:22:47.000Z,98688
2018-03-02T07:24:47.000Z,98685
2018-03-02T07:26:32.000Z,98691
2018-03-02T07:27:47.000Z,98690
2018-03-02T07:29:47.000Z,98687
2018-03-02T07:31:47.000Z,98686
2018-03-02T07:33:47.000Z,98674
2018-03-02T07:35:47.000Z,98666
2018-03-02T07:37:32.000Z,98677
2018-03-02T07:39:47.000Z,98664
2018-03-02T07:41:47.000Z,98665
2018-03-02T07:42:47.000Z,98657
2018-03-02T07:44:47.000Z,98662
2018-03-02T07:46:47.000Z,98660
2018-03-02T07:47:47.000Z,98651
2018-03-02T07:48:47.000Z,98661
2018-03-02T07:50:47.000Z,98646
2018-03-02T07:52:47.000Z,98657
2018-03-02T07:54:17.000Z,98662
2018-03-02T07:55:47.000Z,98646
2018-03-02T07:56:47.000Z,98654
2018-03-02T07:57:47.000Z,98652
2018-03-02T07:59:32.000Z,98661
2018-03-02T08:00:47.000Z,98656
2018-03-02T08:02:47.000Z,98660
2018-03-02T08:04:47.000Z,98653
2018-03-02T08:06:47.000Z,98659
2018-03-02T08:07:47.000Z,98641
2018-03-02T08:08:47.000Z,98649
2018-03-02T08:10:47.000Z,98648
2018-03-02T08:11:47.000Z,98642
2018-03-02T08:13:47.000Z,98635
2018-03-02T08:14:47.000Z,98633
2018-03-02T08:16:47.000Z,98634
2018-03-02T08:18:47.000Z,98633
2018-03-02T08:20:47.000Z,98644
2018-03-02T08:22:32.000Z,98648
2018-03-02T08:23:47.000Z,98648
2018-03-02T08:24:47.000Z,98644
2018-03-02T08:25:47.000Z,98641
2018-03-02T08:27:47.000Z,98637
2018-03-02T08:29:32.000Z,98636
2018-03-02T08:31:47.000Z,98627
2018-03-02T08:33:47.000Z,98620
2018-03-02T08:35:47.000Z,98616
2018-03-02T08:36:47.000Z,98624
2018-03-02T08:37:47.000Z,98614
2018-03-02T08:39:47.000Z,98629
2018-03-02T08:40:47.000Z,98633
2018-03-02T08:41:47.000Z,98619
2018-03-02T08:43:47.000Z,98608
2018-03-02T08:44:47.000Z,98614
2018-03-02T08:46:47.000Z,98610
2018-03-02T08:47:47.000Z,98589
2018-03-02T08:48:47.000Z,98610
2018-03-02T08:50:32.000Z,98600
2018-03-02T08:51:47.000Z,98603
2018-03-02T08:53:47.000Z,98593
2018-03-02T08:55:47.000Z,98598
2018-03-02T08:56:47.000Z,98599
2018-03-02T08:58:47.000Z,98602
2018-03-02T08:59:47.000Z,98599
2018-03-02T09:01:47.000Z,98604
2018-03-02T09:03:47.000Z,98591
2018-03-02T09:05:32.000Z,98582
2018-03-02T09:06:47.000Z,98591
2018-03-02T09:07:47.000Z,98598
2018-03-02T09:09:47.000Z,98592
2018-03-02T09:11:47.000Z,98596
2018-03-02T09:13:47.000Z,98594
2018-03-02T09:15:32.000Z,98597
2018-03-02T09:16:47.000Z,98594
2018-03-02T09:18:47.000Z,98583
2018-03-02T09:20:47.000Z,98596
2018-03-02T09:22:47.000Z,98593
2018-03-02T09:23:47.000Z,98594
2018-03-02T09:24:47.000Z,98592
2018-03-02T09:25:47.000Z,98589
2018-03-02T09:27:47.000Z,98591
2018-03-02T09:28:47.000Z,98590
2018-03-02T09:30:47.000Z,98589
2018-03-02T09:32:47.000Z,98584
2018-03-02T09:34:47.000Z,98581
2018-03-02T09:36:47.000Z,98586
2018-03-02T09:38:47.000Z,98585
2018-03-02T09:40:47.000Z,98577
2018-03-02T09:41:47.000Z,98582
2018-03-02T09:43:32.000Z,98569
2018-03-02T09:44:47.000Z,98580
2018-03-02T09:46:47.000Z,98571
2018-03-02T09:48:47.000Z,98572
2018-03-02T09:50:32.000Z,98570
2018-03-02T09:51:47.000Z,98578
2018-03-02T09:53:47.000Z,98570
2018-03-02T09:55:47.000Z,98565
2018-03-02T09:56:47.000Z,98562
2018-03-02T09:58:47.000Z,98579
2018-03-02T10:00:47.000Z,98587
2018-03-02T10:02:47.000Z,98564
2018-03-02T10:03:47.000Z,98561
2018-03-02T10:04:47.000Z,98569
2018-03-02T10:05:47.000Z,98575
2018-03-02T10:07:47.000Z,98579
2018-03-02T10:09:47.000Z,98577
2018-03-02T10:11:47.000Z,98573
2018-03-02T10:12:47.000Z,98569
2018-03-02T10:14:32.000Z,98561
2018-03-02T10:15:47.000Z,98569
2018-03-02T10:17:47.000Z,98562
2018-03-02T10:19:47.000Z,98561
2018-03-02T10:20:47.000Z,98560
2018-03-02T10:21:47.000Z,98564
2018-03-02T10:23:47.000Z,98551
2018-03-02T10:24:47.000Z,98551
2018-03-02T10:26:47.000Z,98560
2018-03-02T10:27:47.000Z,98560
2018-03-02T10:29:47.000Z,98577
2018-03-02T10:30:47.000Z,98573
2018-03-02T10:32:32.000Z,98566
2018-03-02T10:33:47.000Z,98569
2018-03-02T10:35:47.000Z,98574
2018-03-02T10:36:47.000Z,98572
2018-03-02T10:37:47.000Z,98593
2018-03-02T10:39:47.000Z,98570
2018-03-02T10:40:47.000Z,98570
2018-03-02T10:42:47.000Z,98586
2018-03-02T10:44:47.000Z,98574
2018-03-02T10:45:47.000Z,98575
2018-03-02T10:47:47.000Z,98575
2018-03-02T10:49:47.000Z,98579
2018-03-02T10:51:47.000Z,98582
2018-03-02T10:53:48.000Z,98575
2018-03-02T10:55:48.000Z,98579
2018-03-02T10:57:48.000Z,98576
2018-03-02T10:59:48.000Z,98578
2018-03-02T11:01:48.000Z,98566
2018-03-02T11:03:48.000Z,98575
2018-03-02T11:04:48.000Z,98549
2018-03-02T11:06:48.000Z,98556
2018-03-02T11:08:48.000Z,98573
2018-03-02T11:10:48.000Z,98562
2018-03-02T11:12:48.000Z,98570
2018-03-02T11:14:48.000Z,98573
2018-03-02T11:16:48.000Z,98569
2018-03-02T11:17:48.000Z,98565
2018-03-02T11:19:48.000Z,98572
2018-03-02T11:21:48.000Z,98565
2018-03-02T11:23:48.000Z,98555
2018-03-02T11:24:48.000Z,98560
2018-03-02T11:25:48.000Z,98562
2018-03-02T11:26:48.000Z,98553
2018-03-02T11:28:48.000Z,98559
2018-03-02T11:30:48.000Z,98567
2018-03-02T11:32:32.000Z,98554
2018-03-02T11:33:48.000Z,98555
2018-03-02T11:34:48.000Z,98559
2018-03-02T11:36:48.000Z,98559
2018-03-02T11:38:32.000Z,98550
2018-03-02T11:40:48.000Z,98546
2018-03-02T11:41:48.000Z,98547
2018-03-02T11:43:48.000Z,98564
2018-03-02T11:45:48.000Z,98539
2018-03-02T11:46:48.000Z,98536
2018-03-02T11:47:48.000Z,98542
2018-03-02T11:49:32.000Z,98539
2018-03-02T11:50:48.000Z,98548
2018-03-02T11:52:48.000Z,98534
2018-03-02T11:54:48.000Z,98539
2018-03-02T11:55:48.000Z,98541
2018-03-02T11:57:32.000Z,98511
2018-03-02T11:58:48.000Z,98533
2018-03-02T12:00:48.000Z,98524
2018-03-02T12:01:48.000Z,98529
2018-03-02T12:03:48.000Z,98510
2018-03-02T12:05:32.000Z,98496
2018-03-02T12:06:48.000Z,98517
2018-03-02T12:08:32.000Z,98519
2018-03-02T12:09:48.000Z,98526
2018-03-02T12:10:48.000Z,98529
2018-03-02T12:12:32.000Z,98524
2018-03-02T12:13:48.000Z,98527
2018-03-02T12:15:48.000Z,98522
2018-03-02T12:16:48.000Z,98517
2018-03-02T12:17:48.000Z,98522
2018-03-02T12:19:32.000Z,98521
2018-03-02T12:21:48.000Z,98523
2018-03-02T12:22:48.000Z,98526
2018-03-02T12:23:48.000Z,98523
2018-03-02T12:25:48.000Z,98530
2018-03-02T12:27:32.000Z,98545
2018-03-02T12:28:48.000Z,98514
2018-03-02T12:29:48.000Z,98527
2018-03-02T12:31:32.000Z,98537
2018-03-02T12:32:48.000Z,98520
2018-03-02T12:33:48.000Z,98513
2018-03-02T12:34:48.000Z,98522
2018-03-02T12:36:48.000Z,98530
2018-03-02T12:38:48.000Z,98518
2018-03-02T12:39:48.000Z,98531
2018-03-02T12:41:32.000Z,98529
2018-03-02T12:43:48.000Z,98527
2018-03-02T12:45:32.000Z,98532
2018-03-02T12:46:48.000Z,98530
2018-03-02T12:47:48.000Z,98543
2018-03-02T12:49:48.000Z,98541
2018-03-02T12:51:48.000Z,98540
2018-03-02T12:53:48.000Z,98547
2018-03-02T12:54:48.000Z,98530
2018-03-02T12:56:48.000Z,98541
2018-03-02T12:58:48.000Z,98541
2018-03-02T13:00:48.000Z,98543
2018-03-02T13:02:48.000Z,98555
2018-03-02T13:04:48.000Z,98550
2018-03-02T13:06:48.000Z,98540
2018-03-02T13:07:48.000Z,98539
2018-03-02T13:09:48.000Z,98526
2018-03-02T13:10:48.000Z,98532
2018-03-02T13:12:48.000Z,98538
2018-03-02T13:13:48.000Z,98544
2018-03-02T13:14:48.000Z,98539
2018-03-02T13:16:48.000Z,98549
2018-03-02T13:18:48.000Z,98551
2018-03-02T13:20:48.000Z,98544
2018-03-02T13:22:48.000Z,98545
2018-03-02T13:23:48.000Z,98534
2018-03-02T13:25:48.000Z,98552
2018-03-02T13:26:48.000Z,98537
2018-03-02T13:28:48.000Z,98531
2018-03-02T13:30:48.000Z,98541
2018-03-02T13:31:48.000Z,98543
2018-03-02T13:33:48.000Z,98503
2018-03-02T13:35:48.000Z,98502
2018-03-02T13:37:48.000Z,98489
2018-03-02T13:39:48.000Z,98488
2018-03-02T13:41:48.000Z,98503
2018-03-02T13:43:48.000Z,98495
2018-03-02T13:44:48.000Z,98500
2018-03-02T13:46:32.000Z,98493
2018-03-02T13:47:48.000Z,98496
2018-03-02T13:48:48.000Z,98492
2018-03-02T13:50:48.000Z,98492
2018-03-02T13:52:48.000Z,98496
2018-03-02T13:53:48.000Z,98489
2018-03-02T13:55:32.000Z,98497
2018-03-02T13:56:48.000Z,98493
2018-03-02T13:58:32.000Z,98499
2018-03-02T13:59:48.000Z,98498
2018-03-02T14:00:48.000Z,98497
2018-03-02T14:02:48.000Z,98481
2018-03-02T14:03:48.000Z,98485
2018-03-02T14:05:48.000Z,98494
2018-03-02T14:07:32.000Z,98485
2018-03-02T14:08:48.000Z,98490
2018-03-02T14:09:48.000Z,98495
2018-03-02T14:11:48.000Z,98483
2018-03-02T14:13:48.000Z,98492
2018-03-02T14:14:48.000Z,98491
2018-03-02T14:16:48.000Z,98481
2018-03-02T14:18:48.000Z,98480
2018-03-02T14:19:48.000Z,98483
2018-03-02T14:21:48.000Z,98483
2018-03-02T14:23:48.000Z,98467
2018-03-02T14:25:48.000Z,98487
2018-03-02T14:27:48.000Z,98499
2018-03-02T14:28:48.000Z,98485
2018-03-02T14:29:48.000Z,98482
2018-03-02T14:31:48.000Z,98482
2018-03-02T14:33:48.000Z,98481
2018-03-02T14:35:48.000Z,98469
2018-03-02T14:37:48.000Z,98474
2018-03-02T14:38:48.000Z,98471
2018-03-02T14:40:48.000Z,98453
2018-03-02T14:42:48.000Z,98462
2018-03-02T14:44:32.000Z,98463
2018-03-02T14:45:48.000Z,98450
2018-03-02T14:46:48.000Z,98454
2018-03-02T14:48:32.000Z,98464
2018-03-02T14:49:48.000Z,98459
2018-03-02T14:51:48.000Z,98471
2018-03-02T14:52:48.000Z,98463
2018-03-02T14:54:32.000Z,98474
2018-03-02T14:55:48.000Z,98475
2018-03-02T14:56:48.000Z,98470
2018-03-02T14:58:48.000Z,98467
2018-03-02T15:00:48.000Z,98467
2018-03-02T15:01:48.000Z,98474
2018-03-02T15:03:48.000Z,98465
2018-03-02T15:04:48.000Z,98466
2018-03-02T15:06:47.000Z,98471
2018-03-02T15:08:47.000Z,98476
2018-03-02T15:10:47.000Z,98477
2018-03-02T15:12:47.000Z,98475
2018-03-02T15:13:47.000Z,98468
2018-03-02T15:15:32.000Z,98471
2018-03-02T15:16:47.000Z,98476
2018-03-02T15:17:47.000Z,98476
2018-03-02T15:19:47.000Z,98486
2018-03-02T15:21:47.000Z,98499
2018-03-02T15:22:47.000Z,98496
2018-03-02T15:24:17.000Z,98493
2018-03-02T15:25:47.000Z,98504
2018-03-02T15:27:47.000Z,98497
2018-03-02T15:29:47.000Z,98491
2018-03-02T15:31:32.000Z,98482
2018-03-02T15:32:47.000Z,98490
2018-03-02T15:34:47.000Z,98492
2018-03-02T15:36:47.000Z,98486
2018-03-02T15:37:47.000Z,98484
2018-03-02T15:39:47.000Z,98487
2018-03-02T15:41:47.000Z,98483
2018-03-02T15:43:47.000Z,98481
2018-03-02T15:45:47.000Z,98491
2018-03-02T15:47:47.000Z,98499
2018-03-02T15:49:47.000Z,98498
2018-03-02T15:51:47.000Z,98496
2018-03-02T15:53:47.000Z,98487
2018-03-02T15:54:47.000Z,98490
2018-03-02T15:55:47.000Z,98492
2018-03-02T15:57:47.000Z,98478
2018-03-02T15:59:47.000Z,98479
2018-03-02T16:01:47.000Z,98469
2018-03-02T16:03:47.000Z,98469
2018-03-02T16:04:47.000Z,98471
2018-03-02T16:06:47.000Z,98464
2018-03-02T16:08:47.000Z,98458
2018-03-02T16:09:47.000Z,98471
2018-03-02T16:11:47.000Z,98464
2018-03-02T16:13:47.000Z,98461
2018-03-02T16:14:47.000Z,98443
2018-03-02T16:16:32.000Z,98462
2018-03-02T16:17:47.000Z,98458
2018-03-02T16:18:47.000Z,98462
2018-03-02T16:20:47.000Z,98462
2018-03-02T16:21:47.000Z,98468
2018-03-02T16:22:47.000Z,98469
2018-03-02T16:24:47.000Z,98471
2018-03-02T16:26:47.000Z,98467
2018-03-02T16:28:47.000Z,98479
2018-03-02T16:29:47.000Z,98478
2018-03-02T16:31:47.000Z,98492
2018-03-02T16:33:47.000Z,98487
2018-03-02T16:34:47.000Z,98485
2018-03-02T16:36:47.000Z,98490
2018-03-02T16:37:47.000Z,98499
2018-03-02T16:39:32.000Z,98499
2018-03-02T16:40:47.000Z,98513
2018-03-02T16:42:47.000Z,98512
2018-03-02T16:44:47.000Z,98522
2018-03-02T16:46:47.000Z,98519
2018-03-02T16:48:32.000Z,98511
2018-03-02T16:49:47.000Z,98519
2018-03-02T16:51:47.000Z,98531
2018-03-02T16:53:47.000Z,98529
2018-03-02T16:55:47.000Z,98540
2018-03-02T16:57:32.000Z,98545
2018-03-02T16:58:47.000Z,98536
2018-03-02T17:00:47.000Z,98546
2018-03-02T17:02:47.000Z,98547
2018-03-02T17:03:47.000Z,98544
2018-03-02T17:05:47.000Z,98539
2018-03-02T17:07:47.000Z,98539
2018-03-02T17:08:47.000Z,98545
2018-03-02T17:09:47.000Z,98540
2018-03-02T17:10:47.000Z,98547
2018-03-02T17:12:47.000Z,98551
2018-03-02T17:14:48.000Z,98551
2018-03-02T17:16:48.000Z,98547
2018-03-02T17:18:48.000Z,98549
2018-03-02T17:20:48.000Z,98554
2018-03-02T17:22:48.000Z,98554
2018-03-02T17:23:48.000Z,98550
2018-03-02T17:25:48.000Z,98544
2018-03-02T17:26:48.000Z,98551
2018-03-02T17:27:48.000Z,98548
2018-03-02T17:29:48.000Z,98552
2018-03-02T17:30:48.000Z,98547
2018-03-02T17:32:48.000Z,98555
2018-03-02T17:34:17.000Z,98560
2018-03-02T17:35:48.000Z,98553
2018-03-02T17:36:48.000Z,98564
2018-03-02T17:38:48.000Z,98559
2018-03-02T17:40:48.000Z,98553
2018-03-02T17:42:48.000Z,98562
2018-03-02T17:44:48.000Z,98568
2018-03-02T17:45:48.000Z,98567
2018-03-02T17:47:48.000Z,98563
2018-03-02T17:49:33.000Z,98573
2018-03-02T17:50:48.000Z,98579
2018-03-02T17:51:48.000Z,98577
2018-03-02T17:52:48.000Z,98580
2018-03-02T17:54:48.000Z,98576
2018-03-02T17:56:33.000Z,98585
2018-03-02T17:57:48.000Z,98587
2018-03-02T17:58:48.000Z,98583
2018-03-02T18:00:48.000Z,98588
2018-03-02T18:02:33.000Z,98590
2018-03-02T18:03:48.000Z,98587
2018-03-02T18:04:48.000Z,98586
2018-03-02T18:05:48.000Z,98584
2018-03-02T18:06:48.000Z,98590
2018-03-02T18:08:33.000Z,98588
2018-03-02T18:09:33.000Z,98588
2018-03-02T18:10:48.000Z,98593
2018-03-02T18:11:48.000Z,98581
2018-03-02T18:13:33.000Z,98584
2018-03-02T18:14:48.000Z,98583
2018-03-02T18:15:48.000Z,98585
2018-03-02T18:17:47.000Z,98589
2018-03-02T18:19:47.000Z,98591
2018-03-02T18:21:47.000Z,98585
2018-03-02T18:22:47.000Z,98586
2018-03-02T18:24:32.000Z,98599
2018-03-02T18:25:47.000Z,98609
2018-03-02T18:26:47.000Z,98606
2018-03-02T18:28:47.000Z,98611
2018-03-02T18:30:32.000Z,98609
2018-03-02T18:31:47.000Z,98607
2018-03-02T18:32:47.000Z,98601
2018-03-02T18:34:47.000Z,98609
2018-03-02T18:36:32.000Z,98616
2018-03-02T18:37:47.000Z,98604
2018-03-02T18:38:47.000Z,98609
2018-03-02T18:39:47.000Z,98609
2018-03-02T18:41:47.000Z,98602
2018-03-02T18:43:32.000Z,98608
2018-03-02T18:44:47.000Z,98615
2018-03-02T18:46:32.000Z,98611
2018-03-02T18:47:47.000Z,98611
2018-03-02T18:48:47.000Z,98611
2018-03-02T18:49:47.000Z,98614
2018-03-02T18:51:47.000Z,98611
2018-03-02T18:53:47.000Z,98608
2018-03-02T18:55:47.000Z,98602
2018-03-02T18:56:47.000Z,98607
2018-03-02T18:58:47.000Z,98614
2018-03-02T19:00:47.000Z,98612
2018-03-02T19:01:47.000Z,98613
2018-03-02T19:03:47.000Z,98603
2018-03-02T19:05:47.000Z,98606
2018-03-02T19:06:47.000Z,98609
2018-03-02T19:08:32.000Z,98604
2018-03-02T19:09:32.000Z,98605
2018-03-02T19:10:47.000Z,98611
2018-03-02T19:11:47.000Z,98604
2018-03-02T19:13:17.000Z,98610
2018-03-02T19:14:47.000Z,98608
2018-03-02T19:16:47.000Z,98610
2018-03-02T19:18:47.000Z,98607
2018-03-02T19:20:48.000Z,98605
2018-03-02T19:22:48.000Z,98602
2018-03-02T19:24:48.000Z,98608
2018-03-02T19:25:48.000Z,98605
2018-03-02T19:27:48.000Z,98608
2018-03-02T19:29:48.000Z,98610
2018-03-02T19:31:48.000Z,98610
2018-03-02T19:33:48.000Z,98617
2018-03-02T19:34:48.000Z,98619
2018-03-02T19:36:32.000Z,98621
2018-03-02T19:38:48.000Z,98620
2018-03-02T19:40:48.000Z,98619
2018-03-02T19:42:48.000Z,98624
2018-03-02T19:44:48.000Z,98627
2018-03-02T19:46:48.000Z,98631
2018-03-02T19:48:48.000Z,98636
2018-03-02T19:50:32.000Z,98632
2018-03-02T19:51:48.000Z,98632
2018-03-02T19:53:48.000Z,98639
2018-03-02T19:54:48.000Z,98637
2018-03-02T19:55:48.000Z,98635
2018-03-02T19:57:32.000Z,98635
2018-03-02T19:58:48.000Z,98638
2018-03-02T20:00:32.000Z,98630
2018-03-02T20:01:48.000Z,98637
2018-03-02T20:02:48.000Z,98635
2018-03-02T20:04:48.000Z,98635
2018-03-02T20:05:48.000Z,98630
2018-03-02T20:07:48.000Z,98633
2018-03-02T20:09:48.000Z,98638
2018-03-02T20:11:48.000Z,98634
2018-03-02T20:13:48.000Z,98634
2018-03-02T20:15:48.000Z,98641
2018-03-02T20:17:48.000Z,98644
2018-03-02T20:19:48.000Z,98647
2018-03-02T20:21:32.000Z,98643
2018-03-02T20:22:48.000Z,98642
2018-03-02T20:23:48.000Z,98641
2018-03-02T20:24:48.000Z,98643
2018-03-02T20:26:48.000Z,98643
2018-03-02T20:27:48.000Z,98640
2018-03-02T20:29:32.000Z,98642
2018-03-02T20:30:48.000Z,98645
2018-03-02T20:32:48.000Z,98639
2018-03-02T20:34:48.000Z,98649
2018-03-02T20:36:48.000Z,98648
2018-03-02T20:38:32.000Z,98647
2018-03-02T20:39:48.000Z,98646
2018-03-02T20:40:48.000Z,98640
2018-03-02T20:41:48.000Z,98642
2018-03-02T20:43:48.000Z,98648